sensor_id;sensor_type;location;lat;lon;timestamp;P1;durP1;ratioP1;P2;durP2;ratioP2
15693;SDS011;7947;48.834;9.132;2022-07-29T00:02:53;4.05;;;3.50;;
15693;SDS011;7947;48.834;9.132;2022-07-29T00:06:29;4.05;;;3.08;;
15693;SDS011;7947;48.834;9.132;2022-07-29T00:09:45;4.45;;;3.50;;
15693;SDS011;7947;48.834;9.132;2022-07-29T00:13:00;6.25;;;3.35;;
15693;SDS011;7947;48.834;9.132;2022-07-29T00:16:49;3.92;;;3.25;;
15693;SDS011;7947;48.834;9.132;2022-07-29T00:20:31;5.10;;;3.97;;
15693;SDS011;7947;48.834;9.132;2022-07-29T00:24:16;4.75;;;3.17;;
15693;SDS011;7947;48.834;9.132;2022-07-29T00:27:57;5.68;;;3.40;;
15693;SDS011;7947;48.834;9.132;2022-07-29T00:31:27;5.57;;;4.20;;
15693;SDS011;7947;48.834;9.132;2022-07-29T00:35:04;4.85;;;3.55;;
15693;SDS011;7947;48.834;9.132;2022-07-29T00:38:53;4.35;;;3.08;;
15693;SDS011;7947;48.834;9.132;2022-07-29T00:42:16;4.07;;;3.30;;
15693;SDS011;7947;48.834;9.132;2022-07-29T00:45:58;4.55;;;3.42;;
15693;SDS011;7947;48.834;9.132;2022-07-29T00:49:12;5.55;;;4.05;;
15693;SDS011;7947;48.834;9.132;2022-07-29T00:52:57;3.95;;;3.53;;
15693;SDS011;7947;48.834;9.132;2022-07-29T00:56:16;3.97;;;3.22;;
15693;SDS011;7947;48.834;9.132;2022-07-29T01:00:07;3.55;;;3.20;;
15693;SDS011;7947;48.834;9.132;2022-07-29T01:03:47;3.70;;;3.40;;
15693;SDS011;7947;48.834;9.132;2022-07-29T01:07:05;4.97;;;3.88;;
15693;SDS011;7947;48.834;9.132;2022-07-29T01:10:28;4.38;;;3.47;;
15693;SDS011;7947;48.834;9.132;2022-07-29T01:13:54;4.03;;;3.63;;
15693;SDS011;7947;48.834;9.132;2022-07-29T01:17:10;4.00;;;3.40;;
15693;SDS011;7947;48.834;9.132;2022-07-29T01:20:42;4.15;;;3.75;;
15693;SDS011;7947;48.834;9.132;2022-07-29T01:24:34;3.95;;;3.60;;
15693;SDS011;7947;48.834;9.132;2022-07-29T01:32:43;4.20;;;3.80;;
15693;SDS011;7947;48.834;9.132;2022-07-29T01:36:13;5.00;;;3.17;;
15693;SDS011;7947;48.834;9.132;2022-07-29T01:39:58;3.78;;;3.47;;
15693;SDS011;7947;48.834;9.132;2022-07-29T01:43:41;3.05;;;2.75;;
15693;SDS011;7947;48.834;9.132;2022-07-29T01:47:38;3.67;;;3.35;;
15693;SDS011;7947;48.834;9.132;2022-07-29T01:50:56;3.17;;;2.85;;
15693;SDS011;7947;48.834;9.132;2022-07-29T01:54:24;4.40;;;3.35;;
15693;SDS011;7947;48.834;9.132;2022-07-29T01:57:58;4.13;;;3.70;;
15693;SDS011;7947;48.834;9.132;2022-07-29T02:01:18;3.03;;;2.83;;
15693;SDS011;7947;48.834;9.132;2022-07-29T02:12:36;3.58;;;2.80;;
15693;SDS011;7947;48.834;9.132;2022-07-29T02:15:56;3.65;;;2.72;;
15693;SDS011;7947;48.834;9.132;2022-07-29T02:19:27;2.85;;;2.55;;
15693;SDS011;7947;48.834;9.132;2022-07-29T02:23:31;2.78;;;2.50;;
15693;SDS011;7947;48.834;9.132;2022-07-29T02:27:08;3.75;;;2.70;;
15693;SDS011;7947;48.834;9.132;2022-07-29T02:30:40;3.78;;;3.08;;
15693;SDS011;7947;48.834;9.132;2022-07-29T02:34:14;2.95;;;2.45;;
15693;SDS011;7947;48.834;9.132;2022-07-29T02:42:01;2.92;;;2.65;;
15693;SDS011;7947;48.834;9.132;2022-07-29T02:45:18;3.40;;;3.10;;
15693;SDS011;7947;48.834;9.132;2022-07-29T02:48:47;4.60;;;2.80;;
15693;SDS011;7947;48.834;9.132;2022-07-29T02:51:57;4.80;;;2.90;;
15693;SDS011;7947;48.834;9.132;2022-07-29T02:55:11;3.03;;;2.72;;
15693;SDS011;7947;48.834;9.132;2022-07-29T02:59:04;3.10;;;2.80;;
15693;SDS011;7947;48.834;9.132;2022-07-29T03:02:58;2.65;;;2.45;;
15693;SDS011;7947;48.834;9.132;2022-07-29T03:06:22;3.75;;;2.88;;
15693;SDS011;7947;48.834;9.132;2022-07-29T03:09:47;3.25;;;2.75;;
15693;SDS011;7947;48.834;9.132;2022-07-29T03:13:26;3.90;;;2.78;;
15693;SDS011;7947;48.834;9.132;2022-07-29T03:17:16;3.75;;;2.55;;
15693;SDS011;7947;48.834;9.132;2022-07-29T03:21:26;3.53;;;2.83;;
15693;SDS011;7947;48.834;9.132;2022-07-29T03:24:48;4.07;;;3.05;;
15693;SDS011;7947;48.834;9.132;2022-07-29T03:28:22;3.85;;;3.10;;
15693;SDS011;7947;48.834;9.132;2022-07-29T03:31:42;4.15;;;2.95;;
15693;SDS011;7947;48.834;9.132;2022-07-29T03:35:02;3.85;;;3.08;;
15693;SDS011;7947;48.834;9.132;2022-07-29T03:41:59;3.55;;;3.17;;
15693;SDS011;7947;48.834;9.132;2022-07-29T03:49:16;4.15;;;2.88;;
15693;SDS011;7947;48.834;9.132;2022-07-29T03:56:05;3.20;;;2.55;;
15693;SDS011;7947;48.834;9.132;2022-07-29T03:59:19;3.17;;;2.80;;
15693;SDS011;7947;48.834;9.132;2022-07-29T04:02:55;4.57;;;2.83;;
15693;SDS011;7947;48.834;9.132;2022-07-29T04:06:23;4.15;;;3.30;;
15693;SDS011;7947;48.834;9.132;2022-07-29T04:10:03;3.13;;;2.88;;
15693;SDS011;7947;48.834;9.132;2022-07-29T04:13:41;3.70;;;3.40;;
15693;SDS011;7947;48.834;9.132;2022-07-29T04:17:19;5.32;;;2.90;;
15693;SDS011;7947;48.834;9.132;2022-07-29T04:20:39;3.97;;;3.03;;
15693;SDS011;7947;48.834;9.132;2022-07-29T04:24:00;3.47;;;3.10;;
15693;SDS011;7947;48.834;9.132;2022-07-29T04:27:37;7.28;;;3.50;;
15693;SDS011;7947;48.834;9.132;2022-07-29T04:31:14;5.32;;;3.15;;
15693;SDS011;7947;48.834;9.132;2022-07-29T04:34:47;3.75;;;3.15;;
15693;SDS011;7947;48.834;9.132;2022-07-29T04:41:04;3.10;;;2.80;;
15693;SDS011;7947;48.834;9.132;2022-07-29T04:44:09;3.92;;;2.97;;
15693;SDS011;7947;48.834;9.132;2022-07-29T04:47:12;3.80;;;3.05;;
15693;SDS011;7947;48.834;9.132;2022-07-29T04:50:15;4.25;;;3.20;;
15693;SDS011;7947;48.834;9.132;2022-07-29T04:53:18;3.38;;;2.70;;
15693;SDS011;7947;48.834;9.132;2022-07-29T04:56:20;4.45;;;2.90;;
15693;SDS011;7947;48.834;9.132;2022-07-29T04:59:25;4.50;;;3.47;;
15693;SDS011;7947;48.834;9.132;2022-07-29T05:02:28;4.70;;;3.75;;
15693;SDS011;7947;48.834;9.132;2022-07-29T05:05:31;3.80;;;3.20;;
15693;SDS011;7947;48.834;9.132;2022-07-29T05:08:33;4.35;;;2.75;;
15693;SDS011;7947;48.834;9.132;2022-07-29T05:11:37;3.92;;;2.60;;
15693;SDS011;7947;48.834;9.132;2022-07-29T05:14:41;3.40;;;2.67;;
15693;SDS011;7947;48.834;9.132;2022-07-29T05:17:44;2.95;;;2.33;;
15693;SDS011;7947;48.834;9.132;2022-07-29T05:20:47;2.70;;;2.50;;
15693;SDS011;7947;48.834;9.132;2022-07-29T05:23:50;3.00;;;2.25;;
15693;SDS011;7947;48.834;9.132;2022-07-29T05:26:53;3.28;;;2.50;;
15693;SDS011;7947;48.834;9.132;2022-07-29T05:29:57;3.85;;;2.40;;
15693;SDS011;7947;48.834;9.132;2022-07-29T05:33:00;5.28;;;2.08;;
15693;SDS011;7947;48.834;9.132;2022-07-29T05:36:03;3.22;;;2.40;;
15693;SDS011;7947;48.834;9.132;2022-07-29T05:39:08;3.05;;;2.22;;
15693;SDS011;7947;48.834;9.132;2022-07-29T05:42:11;2.10;;;1.90;;
15693;SDS011;7947;48.834;9.132;2022-07-29T05:45:15;2.58;;;1.80;;
15693;SDS011;7947;48.834;9.132;2022-07-29T05:48:18;2.90;;;1.80;;
15693;SDS011;7947;48.834;9.132;2022-07-29T05:51:21;2.53;;;1.70;;
15693;SDS011;7947;48.834;9.132;2022-07-29T05:54:24;2.63;;;1.92;;
15693;SDS011;7947;48.834;9.132;2022-07-29T05:57:27;2.50;;;2.30;;
15693;SDS011;7947;48.834;9.132;2022-07-29T06:00:31;2.78;;;2.10;;
15693;SDS011;7947;48.834;9.132;2022-07-29T06:03:34;2.55;;;1.90;;
15693;SDS011;7947;48.834;9.132;2022-07-29T06:06:38;5.85;;;2.40;;
15693;SDS011;7947;48.834;9.132;2022-07-29T06:09:41;4.30;;;2.45;;
15693;SDS011;7947;48.834;9.132;2022-07-29T06:12:45;3.08;;;2.78;;
15693;SDS011;7947;48.834;9.132;2022-07-29T06:15:49;3.20;;;2.30;;
15693;SDS011;7947;48.834;9.132;2022-07-29T06:18:51;2.70;;;2.50;;
15693;SDS011;7947;48.834;9.132;2022-07-29T06:21:54;3.15;;;2.28;;
15693;SDS011;7947;48.834;9.132;2022-07-29T06:24:57;3.45;;;2.20;;
15693;SDS011;7947;48.834;9.132;2022-07-29T06:28:00;3.38;;;2.38;;
15693;SDS011;7947;48.834;9.132;2022-07-29T06:31:04;3.58;;;2.60;;
15693;SDS011;7947;48.834;9.132;2022-07-29T06:34:10;3.30;;;2.20;;
15693;SDS011;7947;48.834;9.132;2022-07-29T06:37:13;3.80;;;2.15;;
15693;SDS011;7947;48.834;9.132;2022-07-29T06:40:16;2.83;;;2.08;;
15693;SDS011;7947;48.834;9.132;2022-07-29T06:43:38;3.97;;;2.60;;
15693;SDS011;7947;48.834;9.132;2022-07-29T06:46:56;5.47;;;2.58;;
15693;SDS011;7947;48.834;9.132;2022-07-29T06:49:59;3.83;;;2.40;;
15693;SDS011;7947;48.834;9.132;2022-07-29T06:53:02;2.50;;;2.22;;
15693;SDS011;7947;48.834;9.132;2022-07-29T06:56:07;2.60;;;2.40;;
15693;SDS011;7947;48.834;9.132;2022-07-29T06:59:10;3.03;;;2.70;;
15693;SDS011;7947;48.834;9.132;2022-07-29T07:02:15;3.33;;;2.30;;
15693;SDS011;7947;48.834;9.132;2022-07-29T07:05:18;3.47;;;2.40;;
15693;SDS011;7947;48.834;9.132;2022-07-29T07:08:21;4.32;;;3.38;;
15693;SDS011;7947;48.834;9.132;2022-07-29T07:11:24;3.85;;;3.10;;
15693;SDS011;7947;48.834;9.132;2022-07-29T07:14:27;5.03;;;2.58;;
15693;SDS011;7947;48.834;9.132;2022-07-29T07:17:31;5.35;;;2.50;;
15693;SDS011;7947;48.834;9.132;2022-07-29T07:20:35;4.65;;;2.65;;
15693;SDS011;7947;48.834;9.132;2022-07-29T07:23:38;3.47;;;2.78;;
15693;SDS011;7947;48.834;9.132;2022-07-29T07:26:41;4.43;;;3.00;;
15693;SDS011;7947;48.834;9.132;2022-07-29T07:29:44;7.63;;;3.10;;
15693;SDS011;7947;48.834;9.132;2022-07-29T07:32:48;3.03;;;2.72;;
15693;SDS011;7947;48.834;9.132;2022-07-29T07:35:51;4.75;;;2.90;;
15693;SDS011;7947;48.834;9.132;2022-07-29T07:38:54;6.15;;;3.00;;
15693;SDS011;7947;48.834;9.132;2022-07-29T07:41:56;4.65;;;3.17;;
15693;SDS011;7947;48.834;9.132;2022-07-29T07:44:59;5.22;;;2.75;;
15693;SDS011;7947;48.834;9.132;2022-07-29T07:48:15;4.75;;;3.22;;
15693;SDS011;7947;48.834;9.132;2022-07-29T07:51:18;7.00;;;3.03;;
15693;SDS011;7947;48.834;9.132;2022-07-29T07:54:22;5.00;;;3.05;;
15693;SDS011;7947;48.834;9.132;2022-07-29T07:57:24;4.80;;;3.10;;
15693;SDS011;7947;48.834;9.132;2022-07-29T08:00:27;5.22;;;3.08;;
15693;SDS011;7947;48.834;9.132;2022-07-29T08:03:31;5.57;;;3.25;;
15693;SDS011;7947;48.834;9.132;2022-07-29T08:06:35;4.57;;;2.75;;
15693;SDS011;7947;48.834;9.132;2022-07-29T08:09:38;5.10;;;3.17;;
15693;SDS011;7947;48.834;9.132;2022-07-29T08:12:40;5.10;;;3.13;;
15693;SDS011;7947;48.834;9.132;2022-07-29T08:15:43;4.97;;;2.80;;
15693;SDS011;7947;48.834;9.132;2022-07-29T08:18:48;4.88;;;3.25;;
15693;SDS011;7947;48.834;9.132;2022-07-29T08:21:52;3.40;;;2.78;;
15693;SDS011;7947;48.834;9.132;2022-07-29T08:24:56;4.97;;;2.80;;
15693;SDS011;7947;48.834;9.132;2022-07-29T08:27:58;4.38;;;3.00;;
15693;SDS011;7947;48.834;9.132;2022-07-29T08:31:01;4.32;;;3.00;;
15693;SDS011;7947;48.834;9.132;2022-07-29T08:34:05;4.15;;;2.88;;
15693;SDS011;7947;48.834;9.132;2022-07-29T08:37:08;5.05;;;2.58;;
15693;SDS011;7947;48.834;9.132;2022-07-29T08:40:11;4.40;;;2.78;;
15693;SDS011;7947;48.834;9.132;2022-07-29T08:43:15;6.20;;;3.33;;
15693;SDS011;7947;48.834;9.132;2022-07-29T08:46:18;4.70;;;3.05;;
15693;SDS011;7947;48.834;9.132;2022-07-29T08:49:23;3.70;;;2.85;;
15693;SDS011;7947;48.834;9.132;2022-07-29T08:52:26;3.10;;;2.80;;
15693;SDS011;7947;48.834;9.132;2022-07-29T08:55:31;3.67;;;3.30;;
15693;SDS011;7947;48.834;9.132;2022-07-29T08:58:35;4.22;;;2.83;;
15693;SDS011;7947;48.834;9.132;2022-07-29T09:01:38;3.33;;;2.78;;
15693;SDS011;7947;48.834;9.132;2022-07-29T09:04:46;9.60;;;3.40;;
15693;SDS011;7947;48.834;9.132;2022-07-29T09:07:50;3.20;;;2.72;;
15693;SDS011;7947;48.834;9.132;2022-07-29T09:10:53;4.82;;;2.83;;
15693;SDS011;7947;48.834;9.132;2022-07-29T09:13:57;8.95;;;3.13;;
15693;SDS011;7947;48.834;9.132;2022-07-29T09:16:59;6.85;;;3.35;;
15693;SDS011;7947;48.834;9.132;2022-07-29T09:20:09;4.53;;;3.13;;
15693;SDS011;7947;48.834;9.132;2022-07-29T09:23:13;4.53;;;3.42;;
15693;SDS011;7947;48.834;9.132;2022-07-29T09:26:25;4.88;;;2.90;;
15693;SDS011;7947;48.834;9.132;2022-07-29T09:29:30;6.40;;;3.38;;
15693;SDS011;7947;48.834;9.132;2022-07-29T09:35:59;3.65;;;3.08;;
15693;SDS011;7947;48.834;9.132;2022-07-29T09:39:06;4.38;;;3.08;;
15693;SDS011;7947;48.834;9.132;2022-07-29T09:42:09;3.78;;;3.30;;
15693;SDS011;7947;48.834;9.132;2022-07-29T09:45:12;3.45;;;2.95;;
15693;SDS011;7947;48.834;9.132;2022-07-29T09:48:29;5.47;;;3.15;;
15693;SDS011;7947;48.834;9.132;2022-07-29T09:51:33;6.97;;;3.08;;
15693;SDS011;7947;48.834;9.132;2022-07-29T09:54:38;4.60;;;3.28;;
15693;SDS011;7947;48.834;9.132;2022-07-29T09:57:41;3.60;;;3.30;;
15693;SDS011;7947;48.834;9.132;2022-07-29T10:00:45;5.30;;;3.50;;
15693;SDS011;7947;48.834;9.132;2022-07-29T10:03:51;5.38;;;2.90;;
15693;SDS011;7947;48.834;9.132;2022-07-29T10:06:56;3.42;;;3.00;;
15693;SDS011;7947;48.834;9.132;2022-07-29T10:10:05;4.32;;;3.28;;
15693;SDS011;7947;48.834;9.132;2022-07-29T10:13:09;4.20;;;3.25;;
15693;SDS011;7947;48.834;9.132;2022-07-29T10:16:16;6.28;;;2.80;;
15693;SDS011;7947;48.834;9.132;2022-07-29T10:19:19;5.05;;;3.10;;
15693;SDS011;7947;48.834;9.132;2022-07-29T10:22:24;3.47;;;3.17;;
15693;SDS011;7947;48.834;9.132;2022-07-29T10:25:47;4.68;;;3.17;;
15693;SDS011;7947;48.834;9.132;2022-07-29T10:28:49;6.53;;;3.40;;
15693;SDS011;7947;48.834;9.132;2022-07-29T10:31:57;3.97;;;3.67;;
15693;SDS011;7947;48.834;9.132;2022-07-29T10:35:12;4.00;;;2.83;;
15693;SDS011;7947;48.834;9.132;2022-07-29T10:41:52;4.95;;;3.03;;
15693;SDS011;7947;48.834;9.132;2022-07-29T10:45:05;5.15;;;3.53;;
15693;SDS011;7947;48.834;9.132;2022-07-29T10:48:08;5.78;;;3.05;;
15693;SDS011;7947;48.834;9.132;2022-07-29T10:51:15;8.25;;;3.30;;
15693;SDS011;7947;48.834;9.132;2022-07-29T10:54:18;5.72;;;3.67;;
15693;SDS011;7947;48.834;9.132;2022-07-29T10:57:41;6.82;;;3.65;;
15693;SDS011;7947;48.834;9.132;2022-07-29T11:01:28;5.65;;;3.30;;
15693;SDS011;7947;48.834;9.132;2022-07-29T11:08:21;4.10;;;3.80;;
15693;SDS011;7947;48.834;9.132;2022-07-29T11:11:31;4.97;;;3.80;;
15693;SDS011;7947;48.834;9.132;2022-07-29T11:18:08;8.27;;;4.70;;
15693;SDS011;7947;48.834;9.132;2022-07-29T11:25:12;4.60;;;3.92;;
15693;SDS011;7947;48.834;9.132;2022-07-29T11:28:17;3.83;;;3.15;;
15693;SDS011;7947;48.834;9.132;2022-07-29T11:31:34;7.85;;;3.80;;
15693;SDS011;7947;48.834;9.132;2022-07-29T11:34:39;4.47;;;3.03;;
15693;SDS011;7947;48.834;9.132;2022-07-29T11:37:42;3.90;;;3.42;;
15693;SDS011;7947;48.834;9.132;2022-07-29T11:44:26;4.10;;;3.70;;
15693;SDS011;7947;48.834;9.132;2022-07-29T11:47:59;5.63;;;3.55;;
15693;SDS011;7947;48.834;9.132;2022-07-29T11:51:22;9.82;;;3.80;;
15693;SDS011;7947;48.834;9.132;2022-07-29T11:54:33;5.50;;;3.70;;
15693;SDS011;7947;48.834;9.132;2022-07-29T11:57:57;4.65;;;3.63;;
15693;SDS011;7947;48.834;9.132;2022-07-29T12:01:04;4.65;;;3.72;;
15693;SDS011;7947;48.834;9.132;2022-07-29T12:04:08;6.75;;;3.75;;
15693;SDS011;7947;48.834;9.132;2022-07-29T12:07:13;5.90;;;3.83;;
15693;SDS011;7947;48.834;9.132;2022-07-29T12:10:17;8.32;;;3.60;;
15693;SDS011;7947;48.834;9.132;2022-07-29T12:13:30;8.48;;;3.70;;
15693;SDS011;7947;48.834;9.132;2022-07-29T12:16:41;6.40;;;4.20;;
15693;SDS011;7947;48.834;9.132;2022-07-29T12:19:45;7.32;;;3.95;;
15693;SDS011;7947;48.834;9.132;2022-07-29T12:22:51;8.38;;;4.20;;
15693;SDS011;7947;48.834;9.132;2022-07-29T12:25:55;5.70;;;3.80;;
15693;SDS011;7947;48.834;9.132;2022-07-29T12:29:00;6.82;;;3.90;;
15693;SDS011;7947;48.834;9.132;2022-07-29T12:32:08;6.13;;;3.85;;
15693;SDS011;7947;48.834;9.132;2022-07-29T12:35:17;6.47;;;4.00;;
15693;SDS011;7947;48.834;9.132;2022-07-29T12:38:22;6.78;;;4.53;;
15693;SDS011;7947;48.834;9.132;2022-07-29T12:41:27;5.00;;;3.50;;
15693;SDS011;7947;48.834;9.132;2022-07-29T12:44:42;4.63;;;3.50;;
15693;SDS011;7947;48.834;9.132;2022-07-29T12:47:52;4.45;;;3.40;;
15693;SDS011;7947;48.834;9.132;2022-07-29T12:50:57;7.07;;;3.88;;
15693;SDS011;7947;48.834;9.132;2022-07-29T12:54:03;6.18;;;3.63;;
15693;SDS011;7947;48.834;9.132;2022-07-29T12:57:11;8.23;;;3.50;;
15693;SDS011;7947;48.834;9.132;2022-07-29T13:00:22;7.38;;;3.92;;
15693;SDS011;7947;48.834;9.132;2022-07-29T13:03:26;6.78;;;4.00;;
15693;SDS011;7947;48.834;9.132;2022-07-29T13:06:38;5.35;;;3.63;;
15693;SDS011;7947;48.834;9.132;2022-07-29T13:09:42;5.30;;;3.42;;
15693;SDS011;7947;48.834;9.132;2022-07-29T13:16:11;5.93;;;3.00;;
15693;SDS011;7947;48.834;9.132;2022-07-29T13:19:14;4.80;;;3.20;;
15693;SDS011;7947;48.834;9.132;2022-07-29T13:22:18;5.47;;;2.80;;
15693;SDS011;7947;48.834;9.132;2022-07-29T13:25:23;4.15;;;2.88;;
15693;SDS011;7947;48.834;9.132;2022-07-29T13:28:27;6.38;;;3.00;;
15693;SDS011;7947;48.834;9.132;2022-07-29T13:31:30;5.85;;;2.85;;
15693;SDS011;7947;48.834;9.132;2022-07-29T13:34:33;2.88;;;2.45;;
15693;SDS011;7947;48.834;9.132;2022-07-29T13:37:37;5.07;;;2.58;;
15693;SDS011;7947;48.834;9.132;2022-07-29T13:40:40;5.07;;;2.70;;
15693;SDS011;7947;48.834;9.132;2022-07-29T13:43:43;4.28;;;2.58;;
15693;SDS011;7947;48.834;9.132;2022-07-29T13:46:50;3.80;;;2.90;;
15693;SDS011;7947;48.834;9.132;2022-07-29T13:49:53;4.05;;;2.40;;
15693;SDS011;7947;48.834;9.132;2022-07-29T13:52:57;4.50;;;2.45;;
15693;SDS011;7947;48.834;9.132;2022-07-29T13:56:00;4.30;;;2.70;;
15693;SDS011;7947;48.834;9.132;2022-07-29T13:59:02;3.03;;;2.67;;
15693;SDS011;7947;48.834;9.132;2022-07-29T14:02:05;4.50;;;2.47;;
15693;SDS011;7947;48.834;9.132;2022-07-29T14:05:08;4.10;;;2.88;;
15693;SDS011;7947;48.834;9.132;2022-07-29T14:08:13;4.20;;;3.30;;
15693;SDS011;7947;48.834;9.132;2022-07-29T14:11:16;6.68;;;2.88;;
15693;SDS011;7947;48.834;9.132;2022-07-29T14:14:19;4.30;;;2.60;;
15693;SDS011;7947;48.834;9.132;2022-07-29T14:17:22;5.05;;;2.92;;
15693;SDS011;7947;48.834;9.132;2022-07-29T14:20:25;3.60;;;3.20;;
15693;SDS011;7947;48.834;9.132;2022-07-29T14:23:31;6.80;;;3.08;;
15693;SDS011;7947;48.834;9.132;2022-07-29T14:26:33;3.38;;;2.75;;
15693;SDS011;7947;48.834;9.132;2022-07-29T14:29:36;5.00;;;2.80;;
15693;SDS011;7947;48.834;9.132;2022-07-29T14:32:40;5.40;;;2.83;;
15693;SDS011;7947;48.834;9.132;2022-07-29T14:35:43;3.65;;;2.90;;
15693;SDS011;7947;48.834;9.132;2022-07-29T14:38:49;7.47;;;2.75;;
15693;SDS011;7947;48.834;9.132;2022-07-29T14:41:52;4.82;;;2.90;;
15693;SDS011;7947;48.834;9.132;2022-07-29T14:44:55;4.07;;;2.65;;
15693;SDS011;7947;48.834;9.132;2022-07-29T14:47:58;3.63;;;2.53;;
15693;SDS011;7947;48.834;9.132;2022-07-29T14:51:01;2.40;;;2.20;;
15693;SDS011;7947;48.834;9.132;2022-07-29T14:54:06;3.75;;;2.42;;
15693;SDS011;7947;48.834;9.132;2022-07-29T14:57:09;5.00;;;2.78;;
15693;SDS011;7947;48.834;9.132;2022-07-29T15:00:13;2.38;;;2.17;;
15693;SDS011;7947;48.834;9.132;2022-07-29T15:03:16;5.60;;;2.90;;
15693;SDS011;7947;48.834;9.132;2022-07-29T15:06:24;4.38;;;2.53;;
15693;SDS011;7947;48.834;9.132;2022-07-29T15:09:28;3.38;;;2.55;;
15693;SDS011;7947;48.834;9.132;2022-07-29T15:12:31;5.55;;;2.78;;
15693;SDS011;7947;48.834;9.132;2022-07-29T15:15:34;3.75;;;2.08;;
15693;SDS011;7947;48.834;9.132;2022-07-29T15:18:37;3.67;;;3.03;;
15693;SDS011;7947;48.834;9.132;2022-07-29T15:21:40;4.10;;;2.33;;
15693;SDS011;7947;48.834;9.132;2022-07-29T15:25:01;4.32;;;2.30;;
15693;SDS011;7947;48.834;9.132;2022-07-29T15:28:04;4.35;;;2.25;;
15693;SDS011;7947;48.834;9.132;2022-07-29T15:31:08;3.55;;;1.92;;
15693;SDS011;7947;48.834;9.132;2022-07-29T15:34:11;2.15;;;1.92;;
15693;SDS011;7947;48.834;9.132;2022-07-29T15:37:14;4.82;;;2.15;;
15693;SDS011;7947;48.834;9.132;2022-07-29T15:40:18;6.47;;;2.40;;
15693;SDS011;7947;48.834;9.132;2022-07-29T15:43:21;4.82;;;1.92;;
15693;SDS011;7947;48.834;9.132;2022-07-29T15:46:26;2.72;;;1.65;;
15693;SDS011;7947;48.834;9.132;2022-07-29T15:49:47;5.57;;;2.13;;
15693;SDS011;7947;48.834;9.132;2022-07-29T15:52:50;4.00;;;1.55;;
15693;SDS011;7947;48.834;9.132;2022-07-29T15:55:54;3.17;;;1.80;;
15693;SDS011;7947;48.834;9.132;2022-07-29T15:58:57;2.25;;;1.60;;
15693;SDS011;7947;48.834;9.132;2022-07-29T16:02:01;2.85;;;1.60;;
15693;SDS011;7947;48.834;9.132;2022-07-29T16:05:04;2.58;;;1.25;;
15693;SDS011;7947;48.834;9.132;2022-07-29T16:08:09;2.80;;;1.40;;
15693;SDS011;7947;48.834;9.132;2022-07-29T16:11:14;3.70;;;1.80;;
15693;SDS011;7947;48.834;9.132;2022-07-29T16:14:16;2.50;;;1.30;;
15693;SDS011;7947;48.834;9.132;2022-07-29T16:17:19;3.38;;;1.63;;
15693;SDS011;7947;48.834;9.132;2022-07-29T16:20:22;1.95;;;1.50;;
15693;SDS011;7947;48.834;9.132;2022-07-29T16:23:25;3.45;;;1.70;;
15693;SDS011;7947;48.834;9.132;2022-07-29T16:26:29;1.60;;;1.40;;
15693;SDS011;7947;48.834;9.132;2022-07-29T16:29:32;4.13;;;1.80;;
15693;SDS011;7947;48.834;9.132;2022-07-29T16:32:37;4.57;;;2.03;;
15693;SDS011;7947;48.834;9.132;2022-07-29T16:35:40;3.15;;;2.17;;
15693;SDS011;7947;48.834;9.132;2022-07-29T16:38:43;3.85;;;2.13;;
15693;SDS011;7947;48.834;9.132;2022-07-29T16:41:49;3.75;;;2.00;;
15693;SDS011;7947;48.834;9.132;2022-07-29T16:45:00;2.13;;;1.90;;
15693;SDS011;7947;48.834;9.132;2022-07-29T16:48:03;4.78;;;2.30;;
15693;SDS011;7947;48.834;9.132;2022-07-29T16:51:07;3.80;;;2.17;;
15693;SDS011;7947;48.834;9.132;2022-07-29T16:54:15;3.90;;;1.70;;
15693;SDS011;7947;48.834;9.132;2022-07-29T16:57:20;2.60;;;1.80;;
15693;SDS011;7947;48.834;9.132;2022-07-29T17:00:24;3.80;;;1.60;;
15693;SDS011;7947;48.834;9.132;2022-07-29T17:03:27;3.35;;;1.92;;
15693;SDS011;7947;48.834;9.132;2022-07-29T17:06:32;2.50;;;1.45;;
15693;SDS011;7947;48.834;9.132;2022-07-29T17:09:37;3.70;;;1.83;;
15693;SDS011;7947;48.834;9.132;2022-07-29T17:12:42;2.10;;;1.90;;
15693;SDS011;7947;48.834;9.132;2022-07-29T17:15:46;3.40;;;2.55;;
15693;SDS011;7947;48.834;9.132;2022-07-29T17:18:51;5.00;;;2.72;;
15693;SDS011;7947;48.834;9.132;2022-07-29T17:21:56;4.20;;;2.85;;
15693;SDS011;7947;48.834;9.132;2022-07-29T17:25:10;4.55;;;2.20;;
15693;SDS011;7947;48.834;9.132;2022-07-29T17:28:23;7.30;;;2.80;;
15693;SDS011;7947;48.834;9.132;2022-07-29T17:31:28;4.38;;;2.70;;
15693;SDS011;7947;48.834;9.132;2022-07-29T17:34:32;2.72;;;2.50;;
15693;SDS011;7947;48.834;9.132;2022-07-29T17:37:37;5.32;;;2.75;;
15693;SDS011;7947;48.834;9.132;2022-07-29T17:40:41;5.05;;;2.92;;
15693;SDS011;7947;48.834;9.132;2022-07-29T17:43:46;3.55;;;2.35;;
15693;SDS011;7947;48.834;9.132;2022-07-29T17:46:50;6.30;;;2.30;;
15693;SDS011;7947;48.834;9.132;2022-07-29T17:49:54;3.33;;;2.50;;
15693;SDS011;7947;48.834;9.132;2022-07-29T17:52:58;3.65;;;2.70;;
15693;SDS011;7947;48.834;9.132;2022-07-29T17:56:02;4.88;;;2.35;;
15693;SDS011;7947;48.834;9.132;2022-07-29T17:59:08;2.70;;;2.50;;
15693;SDS011;7947;48.834;9.132;2022-07-29T18:02:12;2.25;;;2.05;;
15693;SDS011;7947;48.834;9.132;2022-07-29T18:05:16;2.55;;;2.17;;
15693;SDS011;7947;48.834;9.132;2022-07-29T18:08:20;3.10;;;2.50;;
15693;SDS011;7947;48.834;9.132;2022-07-29T18:11:24;2.60;;;2.30;;
15693;SDS011;7947;48.834;9.132;2022-07-29T18:14:30;5.53;;;2.90;;
15693;SDS011;7947;48.834;9.132;2022-07-29T18:17:34;2.33;;;1.92;;
15693;SDS011;7947;48.834;9.132;2022-07-29T18:20:57;1.70;;;1.60;;
15693;SDS011;7947;48.834;9.132;2022-07-29T18:24:01;2.78;;;1.67;;
15693;SDS011;7947;48.834;9.132;2022-07-29T18:27:06;3.35;;;1.77;;
15693;SDS011;7947;48.834;9.132;2022-07-29T18:30:12;3.33;;;1.80;;
15693;SDS011;7947;48.834;9.132;2022-07-29T18:33:16;2.05;;;1.70;;
15693;SDS011;7947;48.834;9.132;2022-07-29T18:36:23;2.17;;;1.60;;
15693;SDS011;7947;48.834;9.132;2022-07-29T18:39:27;2.47;;;1.52;;
15693;SDS011;7947;48.834;9.132;2022-07-29T18:42:30;2.50;;;1.80;;
15693;SDS011;7947;48.834;9.132;2022-07-29T18:45:36;4.47;;;1.60;;
15693;SDS011;7947;48.834;9.132;2022-07-29T18:48:40;3.65;;;1.40;;
15693;SDS011;7947;48.834;9.132;2022-07-29T18:51:44;2.03;;;1.40;;
15693;SDS011;7947;48.834;9.132;2022-07-29T18:54:47;1.70;;;1.45;;
15693;SDS011;7947;48.834;9.132;2022-07-29T18:57:51;3.78;;;1.58;;
15693;SDS011;7947;48.834;9.132;2022-07-29T19:00:59;4.32;;;1.52;;
15693;SDS011;7947;48.834;9.132;2022-07-29T19:04:03;2.53;;;1.60;;
15693;SDS011;7947;48.834;9.132;2022-07-29T19:07:07;5.60;;;1.95;;
15693;SDS011;7947;48.834;9.132;2022-07-29T19:10:10;14.90;;;2.15;;
15693;SDS011;7947;48.834;9.132;2022-07-29T19:13:14;13.38;;;1.70;;
15693;SDS011;7947;48.834;9.132;2022-07-29T19:16:20;2.35;;;1.25;;
15693;SDS011;7947;48.834;9.132;2022-07-29T19:19:23;2.92;;;1.80;;
15693;SDS011;7947;48.834;9.132;2022-07-29T19:22:27;3.05;;;1.63;;
15693;SDS011;7947;48.834;9.132;2022-07-29T19:25:31;5.78;;;2.20;;
15693;SDS011;7947;48.834;9.132;2022-07-29T19:28:36;3.75;;;1.60;;
15693;SDS011;7947;48.834;9.132;2022-07-29T19:31:44;2.75;;;1.85;;
15693;SDS011;7947;48.834;9.132;2022-07-29T19:34:48;3.47;;;1.70;;
15693;SDS011;7947;48.834;9.132;2022-07-29T19:38:05;2.10;;;1.52;;
15693;SDS011;7947;48.834;9.132;2022-07-29T19:41:09;2.15;;;1.70;;
15693;SDS011;7947;48.834;9.132;2022-07-29T19:44:15;2.95;;;1.50;;
15693;SDS011;7947;48.834;9.132;2022-07-29T19:47:20;5.68;;;1.85;;
15693;SDS011;7947;48.834;9.132;2022-07-29T19:50:24;3.22;;;1.77;;
15693;SDS011;7947;48.834;9.132;2022-07-29T19:53:29;2.78;;;1.98;;
15693;SDS011;7947;48.834;9.132;2022-07-29T19:56:33;4.22;;;2.30;;
15693;SDS011;7947;48.834;9.132;2022-07-29T19:59:42;3.10;;;1.90;;
15693;SDS011;7947;48.834;9.132;2022-07-29T20:02:49;4.70;;;2.35;;
15693;SDS011;7947;48.834;9.132;2022-07-29T20:06:02;6.40;;;2.03;;
15693;SDS011;7947;48.834;9.132;2022-07-29T20:09:06;2.55;;;1.88;;
15693;SDS011;7947;48.834;9.132;2022-07-29T20:12:21;2.95;;;2.10;;
15693;SDS011;7947;48.834;9.132;2022-07-29T20:15:25;5.97;;;2.00;;
15693;SDS011;7947;48.834;9.132;2022-07-29T20:18:31;6.38;;;2.08;;
15693;SDS011;7947;48.834;9.132;2022-07-29T20:21:36;2.60;;;2.00;;